Amantha, North Carolina
Current Conditions -  °F | °C
As of 6:30 PM on Saturday 25 Oct 2014 (Local Time) from KTNB Reporting Station
Clear Clear  
Wind Chill: 57°   Ceiling: Unl
Heat Index: 57°   Visibility: 10mi
Dew Point: 42°   Wind: 10mph
Humidity: 56%   Direction: 310°NW
Pressure: 30.02"   Gusts: 17mph
Location:  36.2666°N, 81.8431°W
Report Text: KTNB 252230Z AUTO 31009G15KT 10SM CLR 14/06 A3002 RMK AO2 T01410055
Loading
Personal Weather Stations






























Interactive Weather Map
Tropical Storm Tracking
New forecast layout! Learn more

10-Day Weather Forecast

Advertisements
Track Severe Weather on mobile